Luchthaven weerrapport

 

EBBR - Brussel National Airport
Afstand tot station: NNW 8.5km
Update: 19/04/2019 20:20
Helder
Helder
 Wind van ONO
Wind: ONO 9 km/h
Temperatuur: 20°C
Dauwpunt: 4°C
Vochtigheid: 35%
Barometer: 1027 hPa
Overzicht: Helder
Zicht: greater than 10 km
2019/04/19 18:20 EBBR 191820Z 07005KT CAVOK 20/04 Q1027 NOSIG